Time;durP1;ratioP1;P1;durP2;ratioP2;P2;SDS_P1;SDS_P2;PMS_P1;PMS_P2;Temp;Humidity;BMP_temperature;BMP_pressure;BME280_temperature;BME280_humidity;BME280_pressure;Samples;Min_cycle;Max_cycle;Signal;HPM_P1;HPM_P2
2023/04/14 00:00:09;;;;;;;;;;;;;;;5.17;82.03;100795.16;5039586;28;1280;-79
2023/04/14 00:02:35;;;;;;;;;;;;;;;5.12;81.76;100792.03;5026770;28;1244;-79
2023/04/14 00:05:00;;;;;;;;;;;;;;;5.07;81.40;100791.47;5017904;28;1965;-79
2023/04/14 00:07:25;;;;;;;;;;;;;;;5.03;81.60;100788.25;5025219;28;1247;-79
2023/04/14 00:09:50;;;;;;;;;;;;;;;5.00;82.06;100795.31;5043533;28;1383;-79
2023/04/14 00:12:16;;;;;;;;;;;;;;;4.98;82.02;100799.69;5027614;28;1181;-79
2023/04/14 00:14:42;;;;;;;;;;;;;;;4.96;81.53;100796.41;5037381;28;1127;-79
2023/04/14 00:17:07;;;;;;;;;;;;;;;4.92;82.15;100797.50;5031411;28;1081;-79
2023/04/14 00:19:32;;;;;;;;;;;;;;;4.89;82.05;100795.13;5024738;28;1120;-79
2023/04/14 00:21:57;;;;;;;;;;;;;;;4.86;81.76;100795.28;5035261;28;1145;-79
2023/04/14 00:24:23;;;;;;;;;;;;;;;4.84;82.32;100797.13;5042825;28;1065;-79
2023/04/14 00:26:48;;;;;;;;;;;;;;;4.79;81.75;100798.22;5045218;28;1894;-79
2023/04/14 00:29:14;;;;;;;;;;;;;;;4.73;82.38;100793.44;5044354;28;1157;-80
2023/04/14 00:31:39;;;;;;;;;;;;;;;4.67;81.95;100796.34;5041867;28;1104;-79
2023/04/14 00:34:04;;;;;;;;;;;;;;;4.60;82.18;100784.78;5041662;28;1061;-79
2023/04/14 00:36:31;;;;;;;;;;;;;;;4.52;82.23;100797.22;5041630;28;1397;-80
2023/04/14 00:38:56;;;;;;;;;;;;;;;4.52;82.15;100797.22;5023328;28;1291;-79
2023/04/14 00:41:23;;;;;;;;;;;;;;;4.52;82.36;100794.66;5049334;28;1033;-80
2023/04/14 00:43:51;;;;;;;;;;;;;;;4.51;82.31;100795.56;5046463;28;1216;-80
2023/04/14 00:46:16;;;;;;;;;;;;;;;4.50;82.32;100799.06;5048670;28;1917;-80
2023/04/14 00:48:42;;;;;;;;;;;;;;;4.52;82.58;100797.22;5030423;28;1137;-80
2023/04/14 00:51:07;;;;;;;;;;;;;;;4.51;82.76;100800.72;5028357;28;1313;-80
2023/04/14 00:53:33;;;;;;;;;;;;;;;4.51;82.46;100795.56;5037268;28;1180;-79
2023/04/14 00:55:58;;;;;;;;;;;;;;;4.48;82.32;100803.47;5048661;28;1077;-79
2023/04/14 00:58:24;;;;;;;;;;;;;;;4.47;82.42;100800.06;5028666;28;1283;-79
2023/04/14 01:00:54;;;;;;;;;;;;;;;4.46;82.41;100802.69;5048330;28;1089;-79
2023/04/14 01:03:19;;;;;;;;;;;;;;;4.46;82.78;100818.13;5042941;28;1411;-80
2023/04/14 01:05:44;;;;;;;;;;;;;;;4.45;82.43;100806.19;5040738;28;1894;-79
2023/04/14 01:08:10;;;;;;;;;;;;;;;4.43;82.27;100818.31;5042839;28;1328;-80
2023/04/14 01:10:39;;;;;;;;;;;;;;;4.42;82.47;100826.94;5042983;28;1312;-79
2023/04/14 01:13:12;;;;;;;;;;;;;;;4.37;82.58;100823.78;5038983;28;1169;-80
2023/04/14 01:15:40;;;;;;;;;;;;;;;4.32;82.78;100824.03;5046993;28;1094;-79
2023/04/14 01:18:11;;;;;;;;;;;;;;;4.29;82.80;100819.06;5046413;28;1074;-80
2023/04/14 01:20:38;;;;;;;;;;;;;;;4.28;82.99;100819.16;5030572;28;1159;-80
2023/04/14 01:23:05;;;;;;;;;;;;;;;4.26;83.03;100811.53;5024573;28;1286;-79
2023/04/14 01:25:36;;;;;;;;;;;;;;;4.23;83.18;100821.97;5039453;28;1894;-80
2023/04/14 01:28:36;;;;;;;;;;;;;;;4.20;82.82;100817.00;5030603;28;1360;-80
2023/04/14 01:31:20;;;;;;;;;;;;;;;4.16;83.22;100811.22;5045388;28;1357;-79
2023/04/14 01:33:48;;;;;;;;;;;;;;;4.16;83.27;100816.34;5037446;28;1092;-79
2023/04/14 01:36:19;;;;;;;;;;;;;;;4.15;83.13;100809.56;5046529;28;1171;-79
2023/04/14 01:38:47;;;;;;;;;;;;;;;4.15;83.22;100809.56;5039892;28;1375;-80
2023/04/14 01:41:13;;;;;;;;;;;;;;;4.16;83.01;100811.22;5045042;28;1196;-79
2023/04/14 01:43:41;;;;;;;;;;;;;;;4.18;83.17;100809.38;5035045;28;1165;-80
2023/04/14 01:46:08;;;;;;;;;;;;;;;4.17;83.18;100823.13;5044805;28;1965;-79
2023/04/14 01:48:34;;;;;;;;;;;;;;;4.19;83.17;100816.19;5043394;28;1221;-80
2023/04/14 01:51:01;;;;;;;;;;;;;;;4.13;83.12;100824.22;5039038;28;1387;-79
2023/04/14 01:53:27;;;;;;;;;;;;;;;4.08;83.11;100823.66;5046198;28;1151;-79
2023/04/14 01:55:53;;;;;;;;;;;;;;;4.04;83.07;100822.16;5034125;28;934;-79
2023/04/14 01:58:19;;;;;;;;;;;;;;;4.02;83.29;100826.53;5044809;28;1165;-80
2023/04/14 02:00:46;;;;;;;;;;;;;;;4.00;83.20;100825.78;5041440;28;1038;-80
2023/04/14 02:03:12;;;;;;;;;;;;;;;3.95;83.74;100822.63;5047382;28;1144;-79
2023/04/14 02:05:38;;;;;;;;;;;;;;;3.94;83.39;100826.94;5037076;28;1894;-80
2023/04/14 02:08:06;;;;;;;;;;;;;;;3.94;83.71;100823.56;5043623;28;1042;-79
2023/04/14 02:10:32;;;;;;;;;;;;;;;3.95;83.46;100828.59;5020236;28;1450;-80
2023/04/14 02:12:59;;;;;;;;;;;;;;;3.98;83.28;100827.63;5030249;28;1337;-80
2023/04/14 02:15:27;;;;;;;;;;;;;;;3.99;83.71;100829.25;5041311;28;1116;-81
2023/04/14 02:17:54;;;;;;;;;;;;;;;4.01;83.46;100837.69;5043726;28;1204;-79
2023/04/14 02:20:20;;;;;;;;;;;;;;;4.03;83.56;100840.19;5041738;28;1082;-80
2023/04/14 02:22:46;;;;;;;;;;;;;;;4.01;83.43;100842.81;5036942;28;1147;-79
2023/04/14 02:25:11;;;;;;;;;;;;;;;3.98;83.08;100837.88;5042914;28;1894;-79
2023/04/14 02:27:43;;;;;;;;;;;;;;;3.97;83.76;100846.50;5044865;28;1129;-80
2023/04/14 02:30:21;;;;;;;;;;;;;;;3.94;83.34;100841.50;5020765;28;1277;-79
2023/04/14 02:32:48;;;;;;;;;;;;;;;3.93;83.53;100847.56;5034599;28;1188;-80
2023/04/14 02:35:18;;;;;;;;;;;;;;;3.90;83.49;100850.28;5037649;28;1371;-80
2023/04/14 02:37:46;;;;;;;;;;;;;;;3.88;83.68;100850.38;5028524;28;1678;-79
2023/04/14 02:40:14;;;;;;;;;;;;;;;3.87;83.46;100850.44;5046169;28;1389;-79
2023/04/14 02:42:40;;;;;;;;;;;;;;;3.87;83.71;100865.84;5044217;28;1050;-81
2023/04/14 02:45:07;;;;;;;;;;;;;;;3.83;83.47;100859.22;5039837;28;1890;-79
2023/04/14 02:47:37;;;;;;;;;;;;;;;3.79;83.45;100862.88;5034199;28;1184;-79
2023/04/14 02:50:03;;;;;;;;;;;;;;;3.75;83.45;100861.38;5040062;28;1765;-79
2023/04/14 02:52:30;;;;;;;;;;;;;;;3.66;83.51;100866.06;5020356;28;1549;-80
2023/04/14 02:54:56;;;;;;;;;;;;;;;3.53;83.48;100870.16;5044320;28;1582;-80
2023/04/14 02:57:22;;;;;;;;;;;;;;;3.46;83.37;100861.16;5038952;28;1080;-79
2023/04/14 02:59:48;;;;;;;;;;;;;;;3.42;83.65;100869.88;5025824;28;1228;-79
2023/04/14 03:02:14;;;;;;;;;;;;;;;3.38;83.71;100868.38;5037979;28;1077;-79
2023/04/14 03:04:40;;;;;;;;;;;;;;;3.33;83.71;100862.69;5036637;28;1887;-79
2023/04/14 03:07:07;;;;;;;;;;;;;;;3.31;83.98;100862.75;5035669;28;1129;-79
2023/04/14 03:09:32;;;;;;;;;;;;;;;3.32;84.28;100866.13;5044999;28;1207;-80
2023/04/14 03:12:00;;;;;;;;;;;;;;;3.32;84.04;100868.69;5027418;28;1102;-79
2023/04/14 03:14:26;;;;;;;;;;;;;;;3.32;83.49;100864.38;5038514;28;1229;-79
2023/04/14 03:16:52;;;;;;;;;;;;;;;3.32;83.94;100863.56;5044039;28;1073;-79
2023/04/14 03:19:23;;;;;;;;;;;;;;;3.30;83.99;100866.22;5045401;28;1133;-79
2023/04/14 03:21:49;;;;;;;;;;;;;;;3.28;84.26;100868.03;5040505;28;1182;-79
2023/04/14 03:24:19;;;;;;;;;;;;;;;3.29;83.88;100863.75;5036132;28;1228;-80
2023/04/14 03:26:46;;;;;;;;;;;;;;;3.30;84.45;100867.94;5041281;28;1909;-80
2023/04/14 03:29:13;;;;;;;;;;;;;;;3.31;84.18;100867.03;5045342;28;1155;-79
2023/04/14 03:31:42;;;;;;;;;;;;;;;3.30;84.15;100865.38;5039530;28;1049;-80
2023/04/14 03:34:08;;;;;;;;;;;;;;;3.29;84.09;100868.88;5045479;28;1132;-80
2023/04/14 03:36:35;;;;;;;;;;;;;;;3.27;84.55;100875.78;5023226;28;1159;-79
2023/04/14 03:39:01;;;;;;;;;;;;;;;3.27;84.17;100873.22;5033089;28;1157;-79
2023/04/14 03:41:28;;;;;;;;;;;;;;;3.22;84.77;100864.97;5036357;28;1255;-79
2023/04/14 03:43:55;;;;;;;;;;;;;;;3.14;84.23;100866.16;5040667;28;1145;-79
2023/04/14 03:46:22;;;;;;;;;;;;;;;3.09;84.20;100862.97;5041658;28;1953;-79
2023/04/14 03:48:49;;;;;;;;;;;;;;;3.05;84.12;100876.88;5036035;28;1137;-79
2023/04/14 03:51:15;;;;;;;;;;;;;;;3.02;84.09;100879.56;5040303;28;1145;-78
2023/04/14 03:53:41;;;;;;;;;;;;;;;2.99;84.71;100878.91;5042273;28;1167;-80
2023/04/14 03:56:07;;;;;;;;;;;;;;;2.95;85.14;100875.66;5021169;28;1264;-80
2023/04/14 03:58:33;;;;;;;;;;;;;;;2.91;84.79;100874.16;5016981;28;1397;-80
2023/04/14 04:00:58;;;;;;;;;;;;;;;2.90;84.86;100873.31;5038590;28;1331;-79
2023/04/14 04:03:25;;;;;;;;;;;;;;;2.91;84.73;100884.41;5035114;28;1081;-81
2023/04/14 04:05:51;;;;;;;;;;;;;;;2.90;84.75;100881.00;5025745;28;1941;-80
2023/04/14 04:08:17;;;;;;;;;;;;;;;2.92;84.44;100888.59;5039421;28;1075;-80
2023/04/14 04:10:44;;;;;;;;;;;;;;;2.90;84.99;100882.75;5039162;28;1010;-79
2023/04/14 04:13:13;;;;;;;;;;;;;;;2.81;84.27;100888.28;5047111;28;1081;-80
2023/04/14 04:15:39;;;;;;;;;;;;;;;2.72;85.07;100883.63;5050490;28;1289;-80
2023/04/14 04:18:06;;;;;;;;;;;;;;;2.68;84.54;100882.94;5052646;28;1120;-79
2023/04/14 04:20:33;;;;;;;;;;;;;;;2.62;84.65;100894.31;5049679;28;1061;-80
2023/04/14 04:23:00;;;;;;;;;;;;;;;2.58;85.30;100897.94;5046025;28;1116;-79
2023/04/14 04:25:25;;;;;;;;;;;;;;;2.53;85.49;100899.06;5047227;28;1959;-80
2023/04/14 04:27:51;;;;;;;;;;;;;;;2.51;85.28;100895.72;5027044;28;1555;-80
2023/04/14 04:30:17;;;;;;;;;;;;;;;2.49;85.48;100898.34;5049561;28;1169;-80
2023/04/14 04:32:42;;;;;;;;;;;;;;;2.45;85.27;100901.94;5033047;28;1188;-80
2023/04/14 04:35:09;;;;;;;;;;;;;;;2.44;85.61;100895.19;5047030;28;1253;-79
2023/04/14 04:37:35;;;;;;;;;;;;;;;2.42;85.93;100896.16;5046915;28;1231;-80
2023/04/14 04:40:00;;;;;;;;;;;;;;;2.40;85.12;100893.66;5051349;28;1120;-80
2023/04/14 04:42:25;;;;;;;;;;;;;;;2.41;85.41;100895.34;5050258;28;1064;-78
2023/04/14 04:44:51;;;;;;;;;;;;;;;2.45;86.20;100896.00;5044937;28;1881;-77
2023/04/14 04:47:16;;;;;;;;;;;;;;;2.47;85.60;100905.28;5046537;28;1405;-77
2023/04/14 04:49:42;;;;;;;;;;;;;;;2.51;85.69;100905.94;5047602;28;1288;-78
2023/04/14 04:52:07;;;;;;;;;;;;;;;2.51;86.22;100901.66;5050833;28;1132;-78
2023/04/14 04:54:32;;;;;;;;;;;;;;;2.51;86.28;100896.53;5039641;28;1207;-78
2023/04/14 04:56:58;;;;;;;;;;;;;;;2.55;86.18;100898.06;5030207;28;1355;-77
2023/04/14 04:59:24;;;;;;;;;;;;;;;2.56;86.08;100899.72;5045766;28;1045;-78
2023/04/14 05:01:49;;;;;;;;;;;;;;;2.56;86.72;100897.16;5043693;28;1428;-78
2023/04/14 05:04:15;;;;;;;;;;;;;;;2.58;87.03;100892.81;5043804;28;1168;-78
2023/04/14 05:06:40;;;;;;;;;;;;;;;2.59;86.33;100891.91;5047680;28;1985;-79
2023/04/14 05:09:05;;;;;;;;;;;;;;;2.61;86.85;100897.78;5040638;28;1116;-78
2023/04/14 05:11:31;;;;;;;;;;;;;;;2.61;86.74;100887.53;5045360;28;1057;-78
2023/04/14 05:13:56;;;;;;;;;;;;;;;2.63;86.82;100890.84;5042993;28;1143;-78
2023/04/14 05:16:22;;;;;;;;;;;;;;;2.64;87.23;100892.53;5039790;28;1277;-78
2023/04/14 05:18:47;;;;;;;;;;;;;;;2.65;87.16;100893.34;5022397;28;1202;-78
2023/04/14 05:21:13;;;;;;;;;;;;;;;2.66;86.85;100889.88;5040270;28;1262;-79
2023/04/14 05:23:41;;;;;;;;;;;;;;;2.68;87.03;100893.19;5039605;28;1153;-78
2023/04/14 05:26:06;;;;;;;;;;;;;;;2.71;87.14;100887.09;5046759;28;1989;-78
2023/04/14 05:28:31;;;;;;;;;;;;;;;2.74;87.48;100892.06;5046833;28;1101;-78
2023/04/14 05:30:57;;;;;;;;;;;;;;;2.74;87.49;100890.31;5044215;28;1239;-78
2023/04/14 05:33:22;;;;;;;;;;;;;;;2.77;87.73;100889.38;5036358;28;1090;-78
2023/04/14 05:35:49;;;;;;;;;;;;;;;2.78;87.52;100891.84;5039475;28;1165;-78
2023/04/14 05:38:15;;;;;;;;;;;;;;;2.81;87.69;100890.84;5045229;28;1279;-76
2023/04/14 05:40:40;;;;;;;;;;;;;;;2.84;87.37;100891.56;5044369;28;1364;-77
2023/04/14 05:43:05;;;;;;;;;;;;;;;2.88;87.68;100889.69;5044319;28;1209;-77
2023/04/14 05:45:31;;;;;;;;;;;;;;;2.91;87.49;100889.53;5046071;28;1970;-77
2023/04/14 05:47:56;;;;;;;;;;;;;;;2.95;87.46;100901.28;5040512;28;1049;-77
2023/04/14 05:50:21;;;;;;;;;;;;;;;3.00;87.95;100901.88;5027114;28;1339;-77
2023/04/14 05:52:47;;;;;;;;;;;;;;;3.05;88.35;100901.66;5047946;28;1214;-77
2023/04/14 05:55:12;;;;;;;;;;;;;;;3.11;88.00;100901.38;5018083;28;1387;-80
2023/04/14 05:57:37;;;;;;;;;;;;;;;3.16;88.15;100900.25;5039564;28;1010;-77
2023/04/14 06:00:03;;;;;;;;;;;;;;;3.19;88.01;100904.38;5045937;28;1210;-77
2023/04/14 06:02:28;;;;;;;;;;;;;;;3.25;88.23;100891.25;5037425;28;1107;-79
2023/04/14 06:04:53;;;;;;;;;;;;;;;3.30;88.22;100902.09;5026824;28;1898;-77
2023/04/14 06:07:19;;;;;;;;;;;;;;;3.35;88.39;100905.28;5037674;28;1234;-78
2023/04/14 06:09:47;;;;;;;;;;;;;;;3.40;88.26;100897.34;5029509;28;1331;-77
2023/04/14 06:12:13;;;;;;;;;;;;;;;3.43;88.04;100897.19;5028238;28;1392;-79
2023/04/14 06:14:38;;;;;;;;;;;;;;;3.49;88.58;100902.00;5047953;28;1097;-77
2023/04/14 06:17:03;;;;;;;;;;;;;;;3.54;88.51;100889.78;5037138;28;1120;-77
2023/04/14 06:19:28;;;;;;;;;;;;;;;3.60;88.47;100886.88;5025964;28;1161;-78
2023/04/14 06:21:54;;;;;;;;;;;;;;;3.65;88.11;100884.91;5025341;28;1262;-78
2023/04/14 06:24:19;;;;;;;;;;;;;;;3.67;88.08;100885.69;5040778;28;1259;-80
2023/04/14 06:26:44;;;;;;;;;;;;;;;3.70;88.35;100889.81;5038445;28;1898;-77
2023/04/14 06:29:10;;;;;;;;;;;;;;;3.76;88.28;100883.53;5041690;28;1161;-78
2023/04/14 06:31:36;;;;;;;;;;;;;;;3.83;88.60;100890.00;5015461;28;1437;-78
2023/04/14 06:34:01;;;;;;;;;;;;;;;3.92;88.71;100890.34;5035624;28;1077;-78
2023/04/14 06:36:26;;;;;;;;;;;;;;;4.03;88.47;100883.81;5022477;28;1274;-78
2023/04/14 06:38:51;;;;;;;;;;;;;;;4.14;88.55;100890.03;5038615;28;1121;-78
2023/04/14 06:41:17;;;;;;;;;;;;;;;4.25;90.11;100892.03;5033631;28;1118;-78
2023/04/14 06:43:42;;;;;;;;;;;;;;;4.34;89.64;100888.13;5022957;28;1280;-78
2023/04/14 06:46:07;;;;;;;;;;;;;;;4.43;89.39;100885.06;5040520;28;1898;-79
2023/04/14 06:48:32;;;;;;;;;;;;;;;4.51;89.02;100888.03;5045206;28;1379;-78
2023/04/14 06:50:57;;;;;;;;;;;;;;;4.57;89.00;100887.69;5045955;28;1079;-78
2023/04/14 06:53:23;;;;;;;;;;;;;;;4.65;89.15;100895.81;5027502;28;2067;-78
2023/04/14 06:55:50;;;;;;;;;;;;;;;4.71;88.92;100890.31;5046790;28;1334;-78
2023/04/14 06:58:15;;;;;;;;;;;;;;;4.80;89.02;100889.78;5029512;28;1141;-78
2023/04/14 07:00:40;;;;;;;;;;;;;;;4.87;88.92;100880.00;5020637;28;1359;-79
2023/04/14 07:03:06;;;;;;;;;;;;;;;5.04;89.35;100881.59;5023771;28;1153;-78
2023/04/14 07:05:31;;;;;;;;;;;;;;;5.13;89.58;100880.25;5039748;28;1898;-79
2023/04/14 07:07:56;;;;;;;;;;;;;;;5.23;89.02;100874.50;5040220;28;1074;-78
2023/04/14 07:10:21;;;;;;;;;;;;;;;5.36;89.29;100876.34;5040204;28;1427;-78
2023/04/14 07:12:47;;;;;;;;;;;;;;;5.49;89.04;100866.97;5044819;28;1339;-78
2023/04/14 07:15:13;;;;;;;;;;;;;;;5.59;88.87;100862.94;5039306;28;1088;-78
2023/04/14 07:17:38;;;;;;;;;;;;;;;5.70;89.19;100870.00;5021909;28;1257;-78
2023/04/14 07:20:04;;;;;;;;;;;;;;;5.80;88.40;100866.78;5025014;28;1344;-78
2023/04/14 07:22:30;;;;;;;;;;;;;;;5.94;88.57;100867.72;5043815;28;1081;-78
2023/04/14 07:24:55;;;;;;;;;;;;;;;6.06;88.39;100861.81;5039664;28;1902;-78
2023/04/14 07:27:20;;;;;;;;;;;;;;;6.19;88.42;100865.25;5037990;28;1092;-78
2023/04/14 07:29:45;;;;;;;;;;;;;;;6.30;88.37;100870.56;5035710;28;1506;-78
2023/04/14 07:32:12;;;;;;;;;;;;;;;6.41;89.46;100871.63;5045675;28;1009;-78
2023/04/14 07:34:38;;;;;;;;;;;;;;;6.49;88.87;100859.13;5023297;28;1211;-78
2023/04/14 07:37:03;;;;;;;;;;;;;;;6.68;88.95;100859.56;5037753;28;1103;-79
2023/04/14 07:39:28;;;;;;;;;;;;;;;6.83;88.65;100857.75;5023701;28;1227;-78
2023/04/14 07:41:56;;;;;;;;;;;;;;;6.96;87.70;100855.19;5040432;28;1194;-78
2023/04/14 07:44:22;;;;;;;;;;;;;;;7.12;87.69;100855.84;5017084;28;1462;-79
2023/04/14 07:46:47;;;;;;;;;;;;;;;7.25;86.66;100851.50;5043399;28;1894;-78
2023/04/14 07:49:12;;;;;;;;;;;;;;;7.34;86.99;100845.75;5045710;28;1141;-78
2023/04/14 07:51:37;;;;;;;;;;;;;;;7.42;86.48;100851.19;5043054;28;1073;-78
2023/04/14 07:54:04;;;;;;;;;;;;;;;7.55;86.33;100850.34;5045039;28;1375;-78
2023/04/14 07:56:30;;;;;;;;;;;;;;;7.66;85.50;100858.19;5042716;28;1306;-78
2023/04/14 07:58:55;;;;;;;;;;;;;;;7.73;85.43;100849.91;5023196;28;1364;-79
2023/04/14 08:01:20;;;;;;;;;;;;;;;7.82;84.75;100853.63;5044490;28;1073;-78
2023/04/14 08:03:45;;;;;;;;;;;;;;;7.89;84.74;100854.84;5040864;28;1262;-80
2023/04/14 08:06:10;;;;;;;;;;;;;;;7.98;84.33;100854.19;5045339;28;1965;-79
2023/04/14 08:08:36;;;;;;;;;;;;;;;8.04;84.17;100847.78;5022055;28;1545;-79
2023/04/14 08:11:01;;;;;;;;;;;;;;;8.13;84.15;100846.28;5016976;28;1411;-78
2023/04/14 08:13:26;;;;;;;;;;;;;;;8.21;84.01;100849.16;5041643;28;1037;-79
2023/04/14 08:15:52;;;;;;;;;;;;;;;8.29;82.34;100852.00;5037141;28;1081;-78
2023/04/14 08:18:17;;;;;;;;;;;;;;;8.38;83.38;100854.00;5020542;28;1124;-79
2023/04/14 08:20:43;;;;;;;;;;;;;;;8.48;82.87;100851.53;5036876;28;1145;-79
2023/04/14 08:23:08;;;;;;;;;;;;;;;8.52;82.57;100848.63;5043667;28;1092;-78
2023/04/14 08:25:33;;;;;;;;;;;;;;;8.64;82.46;100853.84;5032674;28;1898;-79
2023/04/14 08:27:58;;;;;;;;;;;;;;;8.69;80.71;100849.16;5040917;28;1070;-79
2023/04/14 08:30:25;;;;;;;;;;;;;;;8.73;81.12;100841.06;5027685;28;1204;-78
2023/04/14 08:32:50;;;;;;;;;;;;;;;8.77;81.14;100841.66;5035557;28;1415;-78
2023/04/14 08:35:15;;;;;;;;;;;;;;;8.80;80.22;100840.63;5042188;28;1394;-79
2023/04/14 08:37:40;;;;;;;;;;;;;;;8.91;81.00;100844.06;5040188;28;1115;-79
2023/04/14 08:40:08;;;;;;;;;;;;;;;9.03;80.50;100853.50;5027086;28;1411;-78
2023/04/14 08:42:33;;;;;;;;;;;;;;;9.10;78.57;100848.69;5036753;28;1028;-79
2023/04/14 08:44:58;;;;;;;;;;;;;;;9.16;80.17;100847.41;5045311;28;1894;-78
2023/04/14 08:47:26;;;;;;;;;;;;;;;9.24;77.56;100847.66;5035267;28;1116;-80
2023/04/14 08:49:55;;;;;;;;;;;;;;;9.31;77.75;100846.25;5034801;28;1889;-79
2023/04/14 08:52:22;;;;;;;;;;;;;;;9.41;78.57;100842.03;5039663;28;1174;-78
2023/04/14 08:54:49;;;;;;;;;;;;;;;9.49;77.24;100849.19;5041097;28;1070;-78
2023/04/14 08:57:17;;;;;;;;;;;;;;;9.49;76.90;100844.84;5037078;28;1001;-79
2023/04/14 08:59:42;;;;;;;;;;;;;;;9.61;77.33;100844.84;5040637;28;1113;-78
2023/04/14 09:02:08;;;;;;;;;;;;;;;9.71;77.45;100838.84;5041921;28;1379;-78
2023/04/14 09:04:34;;;;;;;;;;;;;;;9.84;75.37;100843.88;5042037;28;1153;-78
2023/04/14 09:07:01;;;;;;;;;;;;;;;9.94;76.65;100844.81;5043925;28;1894;-78
2023/04/14 09:09:27;;;;;;;;;;;;;;;10.03;77.01;100846.66;5047089;28;1062;-78
2023/04/14 09:11:53;;;;;;;;;;;;;;;10.12;76.26;100845.13;5025429;28;1244;-79
2023/04/14 09:14:19;;;;;;;;;;;;;;;10.21;75.42;100836.63;5043310;28;1434;-78
2023/04/14 09:16:47;;;;;;;;;;;;;;;10.28;75.45;100830.03;5028989;28;1188;-78
2023/04/14 09:19:13;;;;;;;;;;;;;;;10.37;75.55;100844.00;5029936;28;1237;-78
2023/04/14 09:21:40;;;;;;;;;;;;;;;10.51;76.44;100828.19;5044081;28;1129;-78
2023/04/14 09:24:05;;;;;;;;;;;;;;;10.67;73.79;100839.88;5046567;28;1347;-78
2023/04/14 09:26:31;;;;;;;;;;;;;;;10.72;73.75;100840.31;5047223;28;1898;-79
2023/04/14 09:28:56;;;;;;;;;;;;;;;10.76;73.63;100837.34;5036237;28;1269;-78
2023/04/14 09:31:22;;;;;;;;;;;;;;;10.82;74.02;100833.44;5044881;28;1073;-79
2023/04/14 09:33:49;;;;;;;;;;;;;;;10.84;71.04;100844.53;5042845;28;1351;-78
2023/04/14 09:36:21;;;;;;;;;;;;;;;10.86;71.21;100827.06;5047138;28;1159;-80
2023/04/14 09:38:47;;;;;;;;;;;;;;;10.86;71.60;100827.06;5042939;28;1213;-78
2023/04/14 09:41:24;;;;;;;;;;;;;;;10.99;70.64;100827.69;5038359;28;1149;-78
2023/04/14 09:43:51;;;;;;;;;;;;;;;11.06;71.96;100828.81;5036476;28;1033;-78
2023/04/14 09:46:16;;;;;;;;;;;;;;;11.08;69.05;100820.91;5043533;28;1910;-78
2023/04/14 09:48:48;;;;;;;;;;;;;;;11.15;69.94;100819.44;5045892;28;1260;-79
2023/04/14 09:51:14;;;;;;;;;;;;;;;11.24;69.27;100817.81;5043229;28;1046;-78
2023/04/14 09:53:40;;;;;;;;;;;;;;;11.31;69.25;100817.19;5036738;28;1255;-78
2023/04/14 09:56:07;;;;;;;;;;;;;;;11.37;68.71;100821.03;5047663;28;1080;-78
2023/04/14 09:58:33;;;;;;;;;;;;;;;11.42;69.00;100817.09;5027836;28;1276;-78
2023/04/14 10:00:58;;;;;;;;;;;;;;;11.45;68.84;100808.22;5033917;28;1397;-78
2023/04/14 10:03:53;;;;;;;;;;;;;;;11.48;68.28;100815.75;5036071;28;1095;-78
2023/04/14 10:06:19;;;;;;;;;;;;;;;11.63;65.88;100805.81;5024406;28;1890;-78
2023/04/14 10:08:47;;;;;;;;;;;;;;;11.73;67.56;100813.66;5041393;28;1375;-78
2023/04/14 10:11:15;;;;;;;;;;;;;;;11.76;67.18;100803.81;5039341;28;1288;-78
2023/04/14 10:13:41;;;;;;;;;;;;;;;11.83;66.76;100806.72;5042871;28;1094;-78
2023/04/14 10:16:07;;;;;;;;;;;;;;;11.89;66.30;100795.78;5038252;28;1210;-78
2023/04/14 10:18:32;;;;;;;;;;;;;;;11.89;67.16;100795.78;5039057;28;1136;-78
2023/04/14 10:20:59;;;;;;;;;;;;;;;11.90;65.19;100782.66;5036532;28;1066;-77
2023/04/14 10:23:24;;;;;;;;;;;;;;;11.90;65.38;100781.84;5044181;28;1109;-78
2023/04/14 10:25:50;;;;;;;;;;;;;;;12.03;64.56;100787.59;5028237;28;1894;-78
2023/04/14 10:28:16;;;;;;;;;;;;;;;12.12;63.99;100786.78;5027412;28;1308;-78
2023/04/14 10:30:42;;;;;;;;;;;;;;;12.15;61.42;100776.09;5034578;28;1031;-78
2023/04/14 10:33:07;;;;;;;;;;;;;;;12.23;62.19;100778.84;5027669;28;1330;-78
2023/04/14 10:35:38;;;;;;;;;;;;;;;12.32;61.43;100776.38;5046184;28;1153;-78
2023/04/14 10:38:03;;;;;;;;;;;;;;;12.46;61.34;100778.56;5027638;28;1327;-78
2023/04/14 10:40:44;;;;;;;;;;;;;;;12.50;61.75;100772.13;5028179;28;1105;-79
2023/04/14 10:43:11;;;;;;;;;;;;;;;12.53;60.58;100769.25;5042258;28;1225;-78
2023/04/14 10:45:51;;;;;;;;;;;;;;;12.53;62.66;100769.25;5019930;28;1891;-78
2023/04/14 10:48:17;;;;;;;;;;;;;;;12.54;57.97;100773.50;5043513;28;1256;-78
2023/04/14 10:50:47;;;;;;;;;;;;;;;12.47;61.65;100764.59;5032255;28;1425;-78
2023/04/14 10:53:13;;;;;;;;;;;;;;;12.38;61.73;100765.44;5039034;28;1203;-78
2023/04/14 10:55:47;;;;;;;;;;;;;;;12.41;61.18;100757.34;5042604;28;2075;-78
2023/04/14 10:58:19;;;;;;;;;;;;;;;12.50;61.45;100769.50;5040013;28;1078;-79
2023/04/14 11:00:45;;;;;;;;;;;;;;;12.58;58.22;100767.06;5027236;28;1247;-78
2023/04/14 11:03:11;;;;;;;;;;;;;;;12.63;57.92;100770.06;5043075;28;1172;-78
2023/04/14 11:05:43;;;;;;;;;;;;;;;12.65;57.73;100757.72;5043337;28;1901;-78
2023/04/14 11:08:12;;;;;;;;;;;;;;;12.81;59.81;100761.53;5041836;28;1369;-78
2023/04/14 11:10:37;;;;;;;;;;;;;;;13.02;59.34;100754.34;5032656;28;1131;-78
2023/04/14 11:13:03;;;;;;;;;;;;;;;13.03;56.97;100751.59;5039858;28;1020;-78
2023/04/14 11:15:48;;;;;;;;;;;;;;;12.94;58.54;100751.63;5018711;28;1322;-77
2023/04/14 11:18:15;;;;;;;;;;;;;;;12.88;59.24;100758.22;5038206;28;1183;-77
2023/04/14 11:20:43;;;;;;;;;;;;;;;12.91;58.22;100746.72;5042282;28;1161;-78
2023/04/14 11:23:09;;;;;;;;;;;;;;;12.98;58.18;100753.00;5040013;28;1542;-78
2023/04/14 11:25:34;;;;;;;;;;;;;;;13.06;58.97;100742.66;5042618;28;1899;-78
2023/04/14 11:28:00;;;;;;;;;;;;;;;13.07;58.11;100741.69;5038868;28;1173;-78
2023/04/14 11:30:26;;;;;;;;;;;;;;;12.99;57.40;100749.41;5015451;28;1316;-78
2023/04/14 11:32:52;;;;;;;;;;;;;;;13.09;56.52;100739.78;5030653;28;1309;-78
2023/04/14 11:35:18;;;;;;;;;;;;;;;13.12;57.02;100749.09;5033293;28;1163;-78
2023/04/14 11:37:44;;;;;;;;;;;;;;;13.09;55.91;100742.41;5036678;28;1324;-78
2023/04/14 11:40:11;;;;;;;;;;;;;;;13.14;56.05;100742.78;5036893;28;1320;-78
2023/04/14 11:42:36;;;;;;;;;;;;;;;13.23;54.22;100741.94;5042919;28;1166;-78
2023/04/14 11:45:03;;;;;;;;;;;;;;;13.34;56.19;100742.72;5045374;28;1897;-78
2023/04/14 11:47:28;;;;;;;;;;;;;;;13.39;54.34;100745.72;5046086;28;1325;-78
2023/04/14 11:49:53;;;;;;;;;;;;;;;13.44;56.42;100738.28;5044380;28;1009;-78
2023/04/14 11:52:18;;;;;;;;;;;;;;;13.50;54.87;100737.69;5043991;28;1089;-78
2023/04/14 11:54:44;;;;;;;;;;;;;;;13.51;56.40;100744.53;5042225;28;1133;-78
2023/04/14 11:57:13;;;;;;;;;;;;;;;13.39;54.68;100735.28;5045988;28;1182;-77
2023/04/14 11:59:44;;;;;;;;;;;;;;;13.38;54.69;100733.66;5039381;28;1100;-78
2023/04/14 12:02:16;;;;;;;;;;;;;;;13.41;55.16;100733.34;5033428;28;1072;-78
2023/04/14 12:04:42;;;;;;;;;;;;;;;13.45;53.82;100732.91;5039169;28;1086;-78
2023/04/14 12:07:11;;;;;;;;;;;;;;;13.47;53.63;100727.56;5038969;28;1886;-78
2023/04/14 12:09:39;;;;;;;;;;;;;;;13.51;52.27;100729.72;5039907;28;1069;-78
2023/04/14 12:12:08;;;;;;;;;;;;;;;13.48;53.61;100730.03;5044306;28;1060;-78
2023/04/14 12:14:35;;;;;;;;;;;;;;;13.47;53.57;100727.56;5040571;28;1177;-78
2023/04/14 12:17:00;;;;;;;;;;;;;;;13.43;54.38;100736.66;5046200;28;1084;-78
2023/04/14 12:19:26;;;;;;;;;;;;;;;13.36;54.01;100725.16;5013918;28;1410;-78
2023/04/14 12:21:53;;;;;;;;;;;;;;;13.33;52.93;100730.66;5036396;28;1078;-79
2023/04/14 12:24:19;;;;;;;;;;;;;;;13.39;54.09;100732.69;5045844;28;1135;-78
2023/04/14 12:26:44;;;;;;;;;;;;;;;13.42;53.91;100734.97;5045516;28;1959;-78
2023/04/14 12:29:12;;;;;;;;;;;;;;;13.38;53.38;100734.47;5046057;28;1156;-78
2023/04/14 12:31:40;;;;;;;;;;;;;;;13.32;53.63;100718.63;5041235;28;1128;-78
2023/04/14 12:34:06;;;;;;;;;;;;;;;13.26;53.98;100728.66;5036637;28;1106;-78
2023/04/14 12:36:31;;;;;;;;;;;;;;;13.21;54.08;100717.84;5037591;28;1142;-78
2023/04/14 12:39:03;;;;;;;;;;;;;;;13.14;53.28;100716.75;5036571;28;1038;-78
2023/04/14 12:41:29;;;;;;;;;;;;;;;13.09;53.11;100708.53;5044544;28;1104;-78
2023/04/14 12:43:54;;;;;;;;;;;;;;;13.11;52.98;100714.41;5045723;28;1068;-78
2023/04/14 12:46:26;;;;;;;;;;;;;;;13.24;52.55;100712.31;5025510;28;1886;-78
2023/04/14 12:48:51;;;;;;;;;;;;;;;13.33;52.72;100709.81;5048162;28;1020;-78
2023/04/14 12:51:17;;;;;;;;;;;;;;;13.35;51.76;100702.69;5023380;28;1339;-80